Sumampa, Argentina
Current Conditions -  °F | °C
As of 12:00 AM on Wednesday 26 Nov 2014 (Local Time) from SACO Reporting Station
Scattered Clouds Scattered Clouds  
Wind Chill: 61°   Ceiling: Unl
Heat Index: 61°   Visibility: 6mi
Dew Point: 54°   Wind: 2mph
Humidity: 77%   Direction: 50°NE
Pressure: 30"   Gusts: NA
Location:  29.37°S, 63.47°W
Report Text: SACO 260300Z 05002KT 9999 SCT020FEW040CB SCT100 16/12 Q1016
Loading
Personal Weather Stations






























Interactive Weather Map New forecast layout! Learn more

10-Day Weather Forecast

Advertisements
Track Severe Weather on mobile